Time;durP1;ratioP1;P1;durP2;ratioP2;P2;SDS_P1;SDS_P2;PMS_P1;PMS_P2;Temp;Humidity;BMP_temperature;BMP_pressure;BME280_temperature;BME280_humidity;BME280_pressure;Samples;Min_cycle;Max_cycle;Signal;HPM_P1;HPM_P2
2021/06/11 00:00:45;;;;;;;9.27;7.00;;;;;;;-145.50;100.00;65435.88;4877924;29;20202;-45
2021/06/11 00:03:11;;;;;;;11.05;7.45;;;;;;;-145.50;100.00;65435.88;4881636;29;20140;-44
2021/06/11 00:05:38;;;;;;;11.07;7.47;;;;;;;-145.50;100.00;65435.88;4881010;29;20091;-46
2021/06/11 00:08:05;;;;;;;11.02;7.00;;;;;;;-145.50;100.00;65435.88;4873437;29;20143;-46
2021/06/11 00:10:33;;;;;;;12.38;7.80;;;;;;;-145.50;100.00;65435.88;4883291;29;20176;-44
2021/06/11 00:13:00;;;;;;;10.30;7.50;;;;;;;-145.50;100.00;65435.88;4878133;29;20507;-46
2021/06/11 00:15:27;;;;;;;8.70;6.93;;;;;;;-145.50;100.00;65435.88;4889180;29;20139;-47
2021/06/11 00:17:54;;;;;;;10.88;7.47;;;;;;;-145.50;100.00;65435.88;4876374;29;20144;-44
2021/06/11 00:20:22;;;;;;;11.10;7.35;;;;;;;-145.50;100.00;65435.88;4882549;29;20163;-44
2021/06/11 00:22:49;;;;;;;10.93;7.13;;;;;;;-145.50;100.00;65435.88;4880424;29;20087;-44
2021/06/11 00:25:24;;;;;;;11.43;7.15;;;;;;;-145.50;100.00;65435.88;4879898;29;20492;-44
2021/06/11 00:27:52;;;;;;;9.75;7.00;;;;;;;-145.50;100.00;65435.88;4881015;29;20171;-44
2021/06/11 00:30:20;;;;;;;10.10;7.55;;;;;;;-145.50;100.00;65435.88;4873068;29;20056;-45
2021/06/11 00:32:46;;;;;;;9.77;6.97;;;;;;;-145.50;100.00;65435.88;4875038;29;20147;-44
2021/06/11 00:35:14;;;;;;;12.02;6.95;;;;;;;-145.50;100.00;65435.88;4877586;29;20066;-43
2021/06/11 00:37:41;;;;;;;11.23;7.55;;;;;;;-145.50;100.00;65435.88;4881752;29;20148;-44
2021/06/11 00:40:09;;;;;;;12.15;7.82;;;;;;;-145.50;100.00;65435.88;4883376;29;20182;-44
2021/06/11 00:42:37;;;;;;;11.63;8.15;;;;;;;-145.50;100.00;65435.88;4876415;29;20143;-45
2021/06/11 00:45:06;;;;;;;10.85;7.93;;;;;;;-145.50;100.00;65435.88;4879920;29;20059;-44
2021/06/11 00:47:32;;;;;;;12.32;8.13;;;;;;;-145.50;100.00;65435.88;4874618;29;20053;-45
2021/06/11 00:49:59;;;;;;;11.52;8.20;;;;;;;-145.50;100.00;65435.88;4879771;29;20524;-47
2021/06/11 00:52:26;;;;;;;14.02;9.25;;;;;;;-145.50;100.00;65435.88;4875348;29;20156;-44
2021/06/11 00:54:52;;;;;;;12.10;9.13;;;;;;;-145.50;100.00;65435.88;4883171;29;20155;-43
2021/06/11 00:57:19;;;;;;;10.18;7.55;;;;;;;-145.50;100.00;65435.88;4884278;29;20148;-43
2021/06/11 00:59:45;;;;;;;13.27;8.52;;;;;;;-145.50;100.00;65435.88;4869569;29;20105;-46
2021/06/11 01:02:15;;;;;;;12.38;8.82;;;;;;;-145.50;100.00;65435.88;4878699;29;20072;-45
2021/06/11 01:04:42;;;;;;;14.00;8.95;;;;;;;-145.50;100.00;65435.88;4879074;29;20884;-45
2021/06/11 01:07:09;;;;;;;12.85;8.52;;;;;;;-145.50;100.00;65435.88;4886313;29;20140;-44
2021/06/11 01:09:39;;;;;;;12.90;9.48;;;;;;;-145.50;100.00;65435.88;4880098;29;20057;-45
2021/06/11 01:12:08;;;;;;;11.40;8.70;;;;;;;-145.50;100.00;65435.88;4885386;29;20132;-45
2021/06/11 01:14:36;;;;;;;11.93;8.68;;;;;;;-145.50;100.00;65435.88;4877069;29;20087;-44
2021/06/11 01:17:03;;;;;;;11.48;8.57;;;;;;;-145.50;100.00;65435.88;4883206;29;20056;-46
2021/06/11 01:19:36;;;;;;;13.10;8.30;;;;;;;-145.50;100.00;65435.88;4885491;29;20702;-43
2021/06/11 01:22:34;;;;;;;12.38;8.27;;;;;;;-145.50;100.00;65435.88;4875959;29;20089;-46
2021/06/11 01:25:07;;;;;;;;;;;;;;;-145.50;100.00;65435.88;4885452;29;20147;-45
2021/06/11 01:27:35;;;;;;;10.98;7.85;;;;;;;-145.50;100.00;65435.88;4873794;29;20018;-44
2021/06/11 01:30:06;;;;;;;11.07;8.30;;;;;;;-145.50;100.00;65435.88;4877526;29;20103;-45
2021/06/11 01:32:35;;;;;;;10.48;7.88;;;;;;;-145.50;100.00;65435.88;4879124;29;20139;-46
2021/06/11 01:35:06;;;;;;;13.07;8.20;;;;;;;-145.50;100.00;65435.88;4885274;29;20083;-44
2021/06/11 01:37:34;;;;;;;11.45;7.97;;;;;;;-145.50;100.00;65435.88;4878461;29;20906;-44
2021/06/11 01:40:06;;;;;;;12.15;8.48;;;;;;;-145.50;100.00;65435.88;4876726;29;20565;-44
2021/06/11 01:42:36;;;;;;;10.98;8.40;;;;;;;-145.50;100.00;65435.88;4884621;29;20059;-44
2021/06/11 01:45:09;;;;;;;10.13;7.85;;;;;;;-145.50;100.00;65435.88;4877943;29;20475;-49
2021/06/11 01:47:39;;;;;;;10.68;7.82;;;;;;;-145.50;100.00;65435.88;4884557;29;20715;-43
2021/06/11 01:50:07;;;;;;;10.90;8.07;;;;;;;-145.50;100.00;65435.88;4878581;29;20627;-45
2021/06/11 01:52:36;;;;;;;11.35;8.95;;;;;;;-145.50;100.00;65435.88;4884861;29;20084;-45
2021/06/11 01:55:05;;;;;;;14.07;8.23;;;;;;;-145.50;100.00;65435.88;4870647;29;20147;-45
2021/06/11 01:57:33;;;;;;;11.73;8.00;;;;;;;-145.50;100.00;65435.88;4882679;29;20151;-43
2021/06/11 02:00:00;;;;;;;11.48;7.75;;;;;;;-145.50;100.00;65435.88;4883452;29;20140;-48
2021/06/11 02:02:28;;;;;;;9.38;7.75;;;;;;;-145.50;100.00;65435.88;4880387;29;20136;-48
2021/06/11 02:04:56;;;;;;;11.38;8.43;;;;;;;-145.50;100.00;65435.88;4883956;29;20049;-46
2021/06/11 02:07:24;;;;;;;11.97;9.10;;;;;;;-145.50;100.00;65435.88;4875378;29;20140;-44
2021/06/11 02:09:52;;;;;;;12.48;8.75;;;;;;;-145.50;100.00;65435.88;4882953;29;20159;-44
2021/06/11 02:12:18;;;;;;;10.45;8.27;;;;;;;-145.50;100.00;65435.88;4879816;29;20123;-45
2021/06/11 02:14:46;;;;;;;10.15;8.02;;;;;;;-145.50;100.00;65435.88;4884275;29;20057;-46
2021/06/11 02:17:13;;;;;;;12.20;8.18;;;;;;;-145.50;100.00;65435.88;4883336;29;20155;-44
2021/06/11 02:19:41;;;;;;;11.18;8.25;;;;;;;-145.50;100.00;65435.88;4882859;29;20056;-44
2021/06/11 02:22:09;;;;;;;13.60;8.55;;;;;;;-145.50;100.00;65435.88;4880594;29;20139;-44
2021/06/11 02:24:38;;;;;;;11.52;8.50;;;;;;;-145.50;100.00;65435.88;4873956;29;20052;-45
2021/06/11 02:27:09;;;;;;;13.38;8.75;;;;;;;-145.50;100.00;65435.88;4884714;29;20104;-44
2021/06/11 02:29:37;;;;;;;14.05;9.25;;;;;;;-145.50;100.00;65435.88;4877554;29;20108;-43
2021/06/11 02:32:05;;;;;;;13.27;9.75;;;;;;;-145.50;100.00;65435.88;4880292;29;20093;-45
2021/06/11 02:34:32;;;;;;;14.20;10.93;;;;;;;-145.50;100.00;65435.88;4878621;29;20071;-44
2021/06/11 02:36:59;;;;;;;17.42;12.02;;;;;;;-145.50;100.00;65435.88;4879980;29;20917;-45
2021/06/11 02:39:26;;;;;;;18.52;13.60;;;;;;;-145.50;100.00;65435.88;4881741;29;20636;-45
2021/06/11 02:42:01;;;;;;;20.42;15.63;;;;;;;-145.50;100.00;65435.88;4881666;29;20147;-44
2021/06/11 02:44:32;;;;;;;22.67;15.13;;;;;;;-145.50;100.00;65435.88;4881274;29;20152;-42
2021/06/11 02:47:24;;;;;;;19.40;15.10;;;;;;;-145.50;100.00;65435.88;4879917;29;20079;-43
2021/06/11 02:49:56;;;;;;;24.95;15.43;;;;;;;-145.50;100.00;65435.88;4881371;29;20488;-44
2021/06/11 02:52:31;;;;;;;22.55;16.58;;;;;;;-145.50;100.00;65435.88;4876307;29;20171;-44
2021/06/11 02:55:01;;;;;;;22.63;16.17;;;;;;;-145.50;100.00;65435.88;4884188;29;20131;-46
2021/06/11 02:57:43;;;;;;;25.42;17.58;;;;;;;-145.50;100.00;65435.88;4878380;29;20515;-44
2021/06/11 03:00:11;;;;;;;21.33;17.23;;;;;;;-145.50;100.00;65435.88;4882317;29;20673;-44
2021/06/11 03:02:52;;;;;;;22.80;17.63;;;;;;;-145.50;100.00;65435.88;4882334;29;20068;-45
2021/06/11 03:05:21;;;;;;;24.08;18.08;;;;;;;-145.50;100.00;65435.88;4873960;29;20143;-45
2021/06/11 03:07:52;;;;;;;28.25;18.35;;;;;;;-145.50;100.00;65435.88;4884394;29;20087;-45
2021/06/11 03:10:27;;;;;;;24.90;18.48;;;;;;;-145.50;100.00;65435.88;4876857;29;21155;-43
2021/06/11 03:12:56;;;;;;;25.10;18.23;;;;;;;-145.50;100.00;65435.88;4883811;29;20155;-46
2021/06/11 03:15:25;;;;;;;24.77;17.83;;;;;;;-145.50;100.00;65435.88;4875256;29;20163;-43
2021/06/11 03:17:55;;;;;;;25.25;17.85;;;;;;;-145.50;100.00;65435.88;4880123;29;20486;-47
2021/06/11 03:20:25;;;;;;;22.67;17.90;;;;;;;-145.50;100.00;65435.88;4875195;29;20066;-45
2021/06/11 03:23:03;;;;;;;25.17;18.95;;;;;;;-145.50;100.00;65435.88;4883854;29;20164;-45
2021/06/11 03:25:36;;;;;;;26.92;19.02;;;;;;;-145.50;100.00;65435.88;4880993;29;20099;-44
2021/06/11 03:28:10;;;;;;;23.45;18.55;;;;;;;-145.50;100.00;65435.88;4881261;29;20147;-44
2021/06/11 03:30:38;;;;;;;25.92;18.70;;;;;;;-145.50;100.00;65435.88;4877180;29;20147;-45
2021/06/11 03:33:11;;;;;;;24.27;18.63;;;;;;;-145.50;100.00;65435.88;4874098;29;20053;-45
2021/06/11 03:35:42;;;;;;;27.33;19.63;;;;;;;-145.50;100.00;65435.88;4882949;29;20647;-50
2021/06/11 03:38:15;;;;;;;26.27;19.42;;;;;;;-145.50;100.00;65435.88;4880734;29;20056;-47
2021/06/11 03:40:46;;;;;;;24.58;17.50;;;;;;;-145.50;100.00;65435.88;4881484;29;20172;-48
2021/06/11 03:43:14;;;;;;;26.35;18.08;;;;;;;-145.50;100.00;65435.88;4878259;29;20083;-44
2021/06/11 03:45:42;;;;;;;23.33;18.30;;;;;;;-145.50;100.00;65435.88;4878659;29;20215;-44
2021/06/11 03:48:11;;;;;;;26.67;18.75;;;;;;;-145.50;100.00;65435.88;4881469;29;20057;-45
2021/06/11 03:50:40;;;;;;;28.77;20.10;;;;;;;-145.50;100.00;65435.88;4878316;29;20815;-45
2021/06/11 03:53:07;;;;;;;25.25;19.33;;;;;;;-145.50;100.00;65435.88;4880236;29;20084;-44
2021/06/11 03:55:42;;;;;;;24.77;19.08;;;;;;;-145.50;100.00;65435.88;4878880;29;20053;-47
2021/06/11 03:58:13;;;;;;;28.63;20.70;;;;;;;-145.50;100.00;65435.88;4880628;29;20147;-43
2021/06/11 04:00:42;;;;;;;26.02;20.42;;;;;;;-145.50;100.00;65435.88;4874928;29;20135;-44
2021/06/11 04:03:09;;;;;;;26.00;20.13;;;;;;;-145.50;100.00;65435.88;4868178;29;20057;-45
2021/06/11 04:05:38;;;;;;;30.48;20.80;;;;;;;-145.50;100.00;65435.88;4877424;29;20428;-46
2021/06/11 04:08:10;;;;;;;27.98;20.08;;;;;;;-145.50;100.00;65435.88;4885077;29;20143;-44
2021/06/11 04:10:55;;;;;;;28.00;18.73;;;;;;;-145.50;100.00;65435.88;4881279;29;20140;-43
2021/06/11 04:13:54;;;;;;;28.60;19.38;;;;;;;-145.50;100.00;65435.88;4873381;29;20080;-45
2021/06/11 04:16:33;;;;;;;27.88;19.45;;;;;;;-145.50;100.00;65435.88;4880611;29;20084;-43
2021/06/11 04:19:02;;;;;;;26.02;19.83;;;;;;;-145.50;100.00;65435.88;4878977;29;20504;-44
2021/06/11 04:21:35;;;;;;;27.70;19.60;;;;;;;-145.50;100.00;65435.88;4880833;29;20577;-45
2021/06/11 04:24:06;;;;;;;30.02;19.83;;;;;;;-145.50;100.00;65435.88;4878163;29;20160;-44
2021/06/11 04:26:34;;;;;;;25.25;20.60;;;;;;;-145.50;100.00;65435.88;4875531;29;20155;-44
2021/06/11 04:29:08;;;;;;;26.02;20.45;;;;;;;-145.50;100.00;65435.88;4878041;29;20159;-45
2021/06/11 04:31:34;;;;;;;28.17;19.65;;;;;;;-145.50;100.00;65435.88;4882999;29;20640;-47
2021/06/11 04:34:01;;;;;;;25.52;19.33;;;;;;;-145.50;100.00;65435.88;4881786;29;20049;-44
2021/06/11 04:36:28;;;;;;;29.50;20.05;;;;;;;-145.50;100.00;65435.88;4878082;29;20748;-45
2021/06/11 04:38:58;;;;;;;29.17;20.23;;;;;;;-145.50;100.00;65435.88;4884062;29;20586;-44
2021/06/11 04:41:26;;;;;;;27.98;19.77;;;;;;;-145.50;100.00;65435.88;4877336;29;20169;-44
2021/06/11 04:43:56;;;;;;;26.25;19.08;;;;;;;-145.50;100.00;65435.88;4883415;29;20163;-45
2021/06/11 04:46:23;;;;;;;26.90;19.98;;;;;;;-145.50;100.00;65435.88;4880848;29;20163;-44
2021/06/11 04:48:50;;;;;;;30.15;21.58;;;;;;;-145.50;100.00;65435.88;4884496;29;20147;-44
2021/06/11 04:51:17;;;;;;;26.92;20.38;;;;;;;-145.50;100.00;65435.88;4883166;29;20572;-45
2021/06/11 04:53:44;;;;;;;28.90;20.55;;;;;;;-145.50;100.00;65435.88;4880446;29;20071;-43
2021/06/11 04:56:12;;;;;;;31.52;22.05;;;;;;;-145.50;100.00;65435.88;4882916;29;20080;-44
2021/06/11 04:58:41;;;;;;;31.52;21.80;;;;;;;-145.50;100.00;65435.88;4882397;29;20091;-44
2021/06/11 05:01:08;;;;;;;31.08;22.05;;;;;;;-145.50;100.00;65435.88;4885636;29;20091;-43
2021/06/11 05:03:35;;;;;;;30.25;22.08;;;;;;;-145.50;100.00;65435.88;4884110;29;20052;-48
2021/06/11 05:06:04;;;;;;;33.47;23.52;;;;;;;-145.50;100.00;65435.88;4885062;29;20125;-43
2021/06/11 05:08:30;;;;;;;;;;;;;;;-145.50;100.00;65435.88;4882836;29;20059;-44
2021/06/11 05:10:58;;;;;;;30.33;21.63;;;;;;;-145.50;100.00;65435.88;4881261;29;20014;-48
2021/06/11 05:13:24;;;;;;;28.70;19.27;;;;;;;-145.50;100.00;65435.88;4885988;29;20147;-43
2021/06/11 05:15:51;;;;;;;30.23;20.25;;;;;;;-145.50;100.00;65435.88;4880671;29;20686;-48
2021/06/11 05:18:28;;;;;;;30.17;20.67;;;;;;;-145.50;100.00;65435.88;4883887;29;20091;-44
2021/06/11 05:20:55;;;;;;;29.67;20.73;;;;;;;-145.50;100.00;65435.88;4877107;29;20163;-45
2021/06/11 05:23:22;;;;;;;31.45;22.25;;;;;;;-145.50;100.00;65435.88;4884410;29;20140;-43
2021/06/11 05:25:50;;;;;;;30.70;22.15;;;;;;;-145.50;100.00;65435.88;4881034;29;20521;-45
2021/06/11 05:28:17;;;;;;;29.83;22.73;;;;;;;-145.50;100.00;65435.88;4883656;29;20163;-44
2021/06/11 05:30:44;;;;;;;32.40;22.53;;;;;;;-145.50;100.00;65435.88;4889128;29;20059;-46
2021/06/11 05:33:11;;;;;;;29.10;21.98;;;;;;;-145.50;100.00;65435.88;4874929;29;20375;-45
2021/06/11 05:35:38;;;;;;;28.83;20.98;;;;;;;-145.50;100.00;65435.88;4885592;29;20058;-46
2021/06/11 05:38:07;;;;;;;27.48;20.60;;;;;;;-145.50;100.00;65435.88;4877436;29;20072;-48
2021/06/11 05:40:35;;;;;;;28.08;18.92;;;;;;;-145.50;100.00;65435.88;4887277;29;20139;-45
2021/06/11 05:43:02;;;;;;;25.85;17.98;;;;;;;-145.50;100.00;65435.88;4878135;29;20175;-44
2021/06/11 05:45:30;;;;;;;27.10;17.98;;;;;;;-145.50;100.00;65435.88;4885436;29;20162;-46
2021/06/11 05:48:02;;;;;;;26.08;18.55;;;;;;;-145.50;100.00;65435.88;4880798;29;20079;-45
2021/06/11 05:50:29;;;;;;;24.15;17.95;;;;;;;-145.50;100.00;65435.88;4872677;29;20126;-44
2021/06/11 05:52:56;;;;;;;25.40;17.73;;;;;;;-145.50;100.00;65435.88;4883357;29;20933;-46
2021/06/11 05:55:25;;;;;;;26.38;18.27;;;;;;;-145.50;100.00;65435.88;4879192;29;20171;-45
2021/06/11 05:57:52;;;;;;;;;;;;;;;-145.50;100.00;65435.88;4887240;29;20143;-45
2021/06/11 06:00:19;;;;;;;23.83;18.05;;;;;;;-145.50;100.00;65435.88;4883040;29;19941;-45
2021/06/11 06:02:46;;;;;;;25.17;17.05;;;;;;;-145.50;100.00;65435.88;4875596;29;20044;-46
2021/06/11 06:05:13;;;;;;;23.88;18.23;;;;;;;-145.50;100.00;65435.88;4884689;29;20161;-46
2021/06/11 06:07:39;;;;;;;29.20;18.60;;;;;;;-145.50;100.00;65435.88;4880426;29;20080;-45
2021/06/11 06:10:07;;;;;;;25.35;18.20;;;;;;;-145.50;100.00;65435.88;4886651;29;20143;-45
2021/06/11 06:12:34;;;;;;;24.52;18.23;;;;;;;-145.50;100.00;65435.88;4875077;29;20919;-45
2021/06/11 06:15:01;;;;;;;26.90;18.02;;;;;;;-145.50;100.00;65435.88;4882299;29;20160;-44
2021/06/11 06:17:31;;;;;;;24.00;17.70;;;;;;;-145.50;100.00;65435.88;4879812;29;20058;-45
2021/06/11 06:19:57;;;;;;;24.85;17.70;;;;;;;-145.50;100.00;65435.88;4882100;29;20171;-46
2021/06/11 06:22:38;;;;;;;24.35;17.25;;;;;;;-145.50;100.00;65435.88;4881317;29;20402;-45
2021/06/11 06:25:06;;;;;;;22.23;17.05;;;;;;;-145.50;100.00;65435.88;4878824;29;20486;-46
2021/06/11 06:27:34;;;;;;;21.95;14.93;;;;;;;-145.50;100.00;65435.88;4876093;29;20129;-46
2021/06/11 06:30:01;;;;;;;20.27;14.90;;;;;;;-145.50;100.00;65435.88;4871561;29;20065;-44
2021/06/11 06:32:29;;;;;;;22.02;15.75;;;;;;;-145.50;100.00;65435.88;4882393;29;20057;-44
2021/06/11 06:34:57;;;;;;;24.02;15.30;;;;;;;-145.50;100.00;65435.88;4878933;29;20139;-45
2021/06/11 06:37:24;;;;;;;22.48;15.82;;;;;;;-145.50;100.00;65435.88;4880978;29;20103;-46
2021/06/11 06:39:52;;;;;;;23.60;15.10;;;;;;;-145.50;100.00;65435.88;4883463;29;20151;-44
2021/06/11 06:42:19;;;;;;;21.85;15.15;;;;;;;-145.50;100.00;65435.88;4868689;29;20440;-47
2021/06/11 06:44:45;;;;;;;22.67;15.10;;;;;;;-145.50;100.00;65435.88;4876683;29;20056;-45
2021/06/11 06:47:12;;;;;;;23.58;15.35;;;;;;;-145.50;100.00;65435.88;4882522;29;20167;-46
2021/06/11 06:49:38;;;;;;;22.83;15.50;;;;;;;-145.50;100.00;65435.88;4881895;29;20071;-48
2021/06/11 06:52:05;;;;;;;22.60;16.55;;;;;;;-145.50;100.00;65435.88;4876815;29;20053;-46
2021/06/11 06:54:33;;;;;;;22.25;16.20;;;;;;;-145.50;100.00;65435.88;4881927;29;20152;-46
2021/06/11 06:57:01;;;;;;;24.95;16.02;;;;;;;-145.50;100.00;65435.88;4883748;29;20056;-44
2021/06/11 06:59:27;;;;;;;20.73;15.55;;;;;;;-145.50;100.00;65435.88;4875059;29;20932;-45
2021/06/11 07:01:57;;;;;;;21.25;16.10;;;;;;;-145.50;100.00;65435.88;4885688;29;20136;-45
2021/06/11 07:04:24;;;;;;;24.13;15.73;;;;;;;-145.50;100.00;65435.88;4877594;29;20103;-45
2021/06/11 07:06:50;;;;;;;24.40;16.63;;;;;;;-145.50;100.00;65435.88;4866520;29;20171;-46
2021/06/11 07:09:17;;;;;;;22.02;16.23;;;;;;;-145.50;100.00;65435.88;4876961;29;20556;-45
2021/06/11 07:11:44;;;;;;;27.05;15.63;;;;;;;-145.50;100.00;65435.88;4879988;29;20056;-45
2021/06/11 07:14:10;;;;;;;27.33;17.00;;;;;;;-145.50;100.00;65435.88;4881344;29;20509;-44
2021/06/11 07:16:37;;;;;;;32.53;18.13;;;;;;;-145.50;100.00;65435.88;4877198;29;20135;-47
2021/06/11 07:19:04;;;;;;;27.23;18.50;;;;;;;-145.50;100.00;65435.88;4884736;29;20155;-45
2021/06/11 07:21:30;;;;;;;30.95;19.65;;;;;;;-145.50;100.00;65435.88;4878205;29;20139;-44
2021/06/11 07:23:57;;;;;;;25.35;18.50;;;;;;;-145.50;100.00;65435.88;4878297;29;20135;-45
2021/06/11 07:26:23;;;;;;;27.70;18.30;;;;;;;-145.50;100.00;65435.88;4872399;29;20147;-45
2021/06/11 07:28:50;;;;;;;31.85;20.52;;;;;;;-145.50;100.00;65435.88;4883993;29;20609;-45
2021/06/11 07:31:16;;;;;;;36.05;20.98;;;;;;;-145.50;100.00;65435.88;4884144;29;20052;-45
2021/06/11 07:33:43;;;;;;;36.70;22.92;;;;;;;-145.50;100.00;65435.88;4878687;29;20143;-44
2021/06/11 07:36:10;;;;;;;35.83;23.35;;;;;;;-145.50;100.00;65435.88;4885491;29;20202;-47
2021/06/11 07:38:36;;;;;;;36.05;24.20;;;;;;;-145.50;100.00;65435.88;4876590;29;20151;-45
2021/06/11 07:41:03;;;;;;;40.95;23.63;;;;;;;-145.50;100.00;65435.88;4877709;29;20147;-45
2021/06/11 07:43:30;;;;;;;38.30;24.10;;;;;;;-145.50;100.00;65435.88;4880872;29;20132;-46
2021/06/11 07:45:56;;;;;;;42.13;24.70;;;;;;;-145.50;100.00;65435.88;4881149;29;20286;-46
2021/06/11 07:48:23;;;;;;;40.45;22.25;;;;;;;-145.50;100.00;65435.88;4886056;29;20215;-45
2021/06/11 07:50:49;;;;;;;42.60;24.38;;;;;;;-145.50;100.00;65435.88;4876907;29;20112;-45
2021/06/11 07:53:16;;;;;;;38.17;22.65;;;;;;;-145.50;100.00;65435.88;4878377;29;20144;-44
2021/06/11 07:55:42;;;;;;;38.83;22.30;;;;;;;-145.50;100.00;65435.88;4872113;29;20147;-45
2021/06/11 07:58:09;;;;;;;36.00;22.42;;;;;;;-145.50;100.00;65435.88;4886664;29;20384;-45
2021/06/11 08:00:36;;;;;;;40.97;21.65;;;;;;;-145.50;100.00;65435.88;4876950;29;20057;-44
2021/06/11 08:03:03;;;;;;;31.50;19.80;;;;;;;-145.50;100.00;65435.88;4877040;29;20068;-44
2021/06/11 08:05:29;;;;;;;34.97;20.25;;;;;;;-145.50;100.00;65435.88;4875859;29;20139;-45
2021/06/11 08:07:56;;;;;;;35.15;19.98;;;;;;;-145.50;100.00;65435.88;4870677;29;20151;-47
2021/06/11 08:10:23;;;;;;;32.60;21.17;;;;;;;-145.50;100.00;65435.88;4880757;29;20477;-46
2021/06/11 08:12:49;;;;;;;36.38;20.73;;;;;;;-145.50;100.00;65435.88;4876784;29;20854;-45
2021/06/11 08:15:17;;;;;;;33.27;21.77;;;;;;;-145.50;100.00;65435.88;4881917;29;20560;-45
2021/06/11 08:17:43;;;;;;;30.33;19.55;;;;;;;-145.50;100.00;65435.88;4865432;29;20603;-46
2021/06/11 08:20:11;;;;;;;31.10;20.13;;;;;;;-145.50;100.00;65435.88;4880059;29;20060;-47
2021/06/11 08:22:38;;;;;;;28.67;17.63;;;;;;;-145.50;100.00;65435.88;4878284;29;20151;-46
2021/06/11 08:25:07;;;;;;;29.58;18.92;;;;;;;-145.50;100.00;65435.88;4877386;29;20088;-45
2021/06/11 08:27:34;;;;;;;29.00;17.58;;;;;;;-145.50;100.00;65435.88;4879882;29;20139;-45
2021/06/11 08:30:01;;;;;;;31.35;21.20;;;;;;;-145.50;100.00;65435.88;4873629;29;20049;-44
2021/06/11 08:32:27;;;;;;;33.33;21.60;;;;;;;-145.50;100.00;65435.88;4877736;29;20168;-46
2021/06/11 08:34:53;;;;;;;32.33;20.52;;;;;;;-145.50;100.00;65435.88;4868273;29;20163;-45
2021/06/11 08:37:21;;;;;;;32.10;20.25;;;;;;;-145.50;100.00;65435.88;4881733;29;20075;-45
2021/06/11 08:39:52;;;;;;;30.25;19.10;;;;;;;-145.50;100.00;65435.88;4885278;29;20143;-45
2021/06/11 08:42:29;;;;;;;30.25;20.05;;;;;;;-145.50;100.00;65435.88;4876076;29;20139;-45
2021/06/11 08:45:03;;;;;;;32.38;18.23;;;;;;;-145.50;100.00;65435.88;4884003;29;20497;-45
2021/06/11 08:47:30;;;;;;;26.63;16.40;;;;;;;-145.50;100.00;65435.88;4872457;29;20140;-45
2021/06/11 08:49:59;;;;;;;27.15;17.33;;;;;;;-145.50;100.00;65435.88;4880428;29;20147;-46
2021/06/11 08:52:27;;;;;;;27.45;16.52;;;;;;;-145.50;100.00;65435.88;4874061;29;20135;-47
2021/06/11 08:54:55;;;;;;;31.20;20.02;;;;;;;-145.50;100.00;65435.88;4885840;29;20084;-46
2021/06/11 08:57:23;;;;;;;32.72;21.13;;;;;;;-145.50;100.00;65435.88;4879336;29;20158;-44
2021/06/11 08:59:52;;;;;;;35.83;20.55;;;;;;;-145.50;100.00;65435.88;4876111;29;20131;-46
2021/06/11 09:02:23;;;;;;;30.92;19.38;;;;;;;-145.50;100.00;65435.88;4877210;29;20139;-48
2021/06/11 09:04:53;;;;;;;26.90;17.05;;;;;;;-145.50;100.00;65435.88;4873632;29;20053;-45
2021/06/11 09:07:26;;;;;;;25.30;16.70;;;;;;;-145.50;100.00;65435.88;4880843;29;20076;-45
2021/06/11 09:10:00;;;;;;;29.35;18.88;;;;;;;-145.50;100.00;65435.88;4880513;29;20143;-45
2021/06/11 09:12:36;;;;;;;28.58;19.55;;;;;;;-145.50;100.00;65435.88;4877630;29;20056;-44
2021/06/11 09:15:13;;;;;;;29.90;18.55;;;;;;;-145.50;100.00;65435.88;4864414;29;20140;-46
2021/06/11 09:17:49;;;;;;;27.25;16.77;;;;;;;-145.50;100.00;65435.88;4875410;29;20144;-44
2021/06/11 09:20:39;;;;;;;24.17;17.13;;;;;;;-145.50;100.00;65435.88;4882799;29;20056;-44
2021/06/11 09:23:08;;;;;;;24.55;16.65;;;;;;;-145.50;100.00;65435.88;4874515;29;20145;-46
2021/06/11 09:25:40;;;;;;;25.70;16.38;;;;;;;-145.50;100.00;65435.88;4878142;29;20088;-47
2021/06/11 09:28:13;;;;;;;22.75;15.32;;;;;;;-145.50;100.00;65435.88;4872002;29;20083;-45
2021/06/11 09:30:39;;;;;;;21.70;14.55;;;;;;;-145.50;100.00;65435.88;4881015;29;20469;-45
2021/06/11 09:33:09;;;;;;;21.63;13.82;;;;;;;-145.50;100.00;65435.88;4877800;29;20553;-45
2021/06/11 09:35:41;;;;;;;19.70;13.07;;;;;;;-145.50;100.00;65435.88;4879058;29;20057;-45
2021/06/11 09:38:13;;;;;;;19.77;13.35;;;;;;;-145.50;100.00;65435.88;4874972;29;20059;-47
2021/06/11 09:40:42;;;;;;;19.98;13.23;;;;;;;-145.50;100.00;65435.88;4888253;29;20120;-44
2021/06/11 09:43:09;;;;;;;17.63;12.13;;;;;;;-145.50;100.00;65435.88;4875827;29;20147;-45
2021/06/11 09:45:37;;;;;;;32.33;14.03;;;;;;;-145.50;100.00;65435.88;4879011;29;20048;-44
2021/06/11 09:48:24;;;;;;;17.48;13.48;;;;;;;-145.50;100.00;65435.88;4883932;29;20376;-46
2021/06/11 09:50:51;;;;;;;21.25;14.20;;;;;;;-145.50;100.00;65435.88;4883049;29;20107;-46
2021/06/11 09:53:23;;;;;;;20.40;14.18;;;;;;;-145.50;100.00;65435.88;4883446;29;20063;-45
2021/06/11 09:55:53;;;;;;;19.80;12.80;;;;;;;-145.50;100.00;65435.88;4875144;29;20561;-46
2021/06/11 09:58:26;;;;;;;17.38;12.38;;;;;;;-145.50;100.00;65435.88;4882165;29;20075;-46
2021/06/11 10:00:54;;;;;;;17.40;11.85;;;;;;;-145.50;100.00;65435.88;4881588;29;20877;-47
2021/06/11 10:03:33;;;;;;;18.17;13.15;;;;;;;-145.50;100.00;65435.88;4882534;29;20749;-46
2021/06/11 10:06:03;;;;;;;19.88;13.65;;;;;;;-145.50;100.00;65435.88;4876663;29;20083;-47
2021/06/11 10:08:30;;;;;;;22.40;15.00;;;;;;;-145.50;100.00;65435.88;4878958;29;20148;-51
2021/06/11 10:11:02;;;;;;;18.53;13.70;;;;;;;-145.50;100.00;65435.88;4877874;29;20067;-48
2021/06/11 10:13:29;;;;;;;18.65;13.23;;;;;;;-145.50;100.00;65435.88;4875800;29;20285;-46
2021/06/11 10:16:03;;;;;;;18.37;13.60;;;;;;;-145.50;100.00;65435.88;4886577;29;20265;-49
2021/06/11 10:18:30;;;;;;;19.88;14.63;;;;;;;-145.50;100.00;65435.88;4876503;29;20705;-48
2021/06/11 10:20:58;;;;;;;20.50;15.47;;;;;;;-145.50;100.00;65435.88;4883965;29;20097;-48
2021/06/11 10:23:25;;;;;;;;;;;;;;;-145.50;100.00;65435.88;4871436;29;20331;-48
2021/06/11 10:25:55;;;;;;;17.63;12.82;;;;;;;-145.50;100.00;65435.88;4884868;29;19991;-47
2021/06/11 10:28:37;;;;;;;18.20;11.77;;;;;;;-145.50;100.00;65435.88;4882886;29;20144;-46
2021/06/11 10:31:08;;;;;;;19.50;13.15;;;;;;;-145.50;100.00;65435.88;4886654;29;20190;-50
2021/06/11 10:33:43;;;;;;;18.75;13.80;;;;;;;-145.50;100.00;65435.88;4881405;29;20556;-50
2021/06/11 10:36:37;;;;;;;18.85;13.13;;;;;;;-145.50;100.00;65435.88;4878319;29;20067;-47
2021/06/11 10:39:09;;;;;;;16.20;12.02;;;;;;;-145.50;100.00;65435.88;4881577;29;20560;-47
2021/06/11 10:41:59;;;;;;;21.58;15.77;;;;;;;-145.50;100.00;65435.88;4881261;29;20111;-48
2021/06/11 10:44:35;;;;;;;19.90;14.68;;;;;;;-145.50;100.00;65435.88;4882519;29;20138;-47
2021/06/11 10:47:23;;;;;;;22.35;11.40;;;;;;;-145.50;100.00;65435.88;4881746;29;20053;-47
2021/06/11 10:50:00;;;;;;;17.02;11.30;;;;;;;-145.50;100.00;65435.88;4878649;29;20182;-47
2021/06/11 10:52:48;;;;;;;19.88;13.23;;;;;;;-145.50;100.00;65435.88;4877299;29;20155;-46
2021/06/11 10:55:21;;;;;;;20.27;13.45;;;;;;;-145.50;100.00;65435.88;4882945;29;20612;-52
2021/06/11 10:57:55;;;;;;;21.75;16.27;;;;;;;-145.50;100.00;65435.88;4876525;29;20540;-48
2021/06/11 11:00:22;;;;;;;20.27;14.88;;;;;;;-145.50;100.00;65435.88;4884332;29;20080;-50
2021/06/11 11:02:52;;;;;;;18.42;13.05;;;;;;;-145.50;100.00;65435.88;4873761;29;20636;-49
2021/06/11 11:05:44;;;;;;;21.33;13.90;;;;;;;-145.50;100.00;65435.88;4878633;29;20401;-45
2021/06/11 11:08:11;;;;;;;25.10;17.70;;;;;;;-145.50;100.00;65435.88;4881315;29;20086;-46